sensor_id;sensor_type;location;lat;lon;timestamp;temperature;humidity
20319;DHT22;10317;47.254;11.314;2023-03-03T00:01:13;-0.30;99.90
20319;DHT22;10317;47.254;11.314;2023-03-03T00:03:53;-0.40;99.90
20319;DHT22;10317;47.254;11.314;2023-03-03T00:06:19;-0.40;99.90
20319;DHT22;10317;47.254;11.314;2023-03-03T00:08:45;-0.30;99.90
20319;DHT22;10317;47.254;11.314;2023-03-03T00:11:12;-0.40;99.90
20319;DHT22;10317;47.254;11.314;2023-03-03T00:13:48;-0.40;99.90
20319;DHT22;10317;47.254;11.314;2023-03-03T00:18:49;-0.40;99.90
20319;DHT22;10317;47.254;11.314;2023-03-03T00:21:32;-0.40;99.90
20319;DHT22;10317;47.254;11.314;2023-03-03T00:26:40;-0.40;99.90
20319;DHT22;10317;47.254;11.314;2023-03-03T00:29:35;-0.50;99.90
20319;DHT22;10317;47.254;11.314;2023-03-03T00:34:40;-0.50;99.90
20319;DHT22;10317;47.254;11.314;2023-03-03T00:39:44;-0.50;99.90
20319;DHT22;10317;47.254;11.314;2023-03-03T00:42:17;-0.50;99.90
20319;DHT22;10317;47.254;11.314;2023-03-03T00:44:47;-0.50;99.90
20319;DHT22;10317;47.254;11.314;2023-03-03T00:50:43;-0.60;99.90
20319;DHT22;10317;47.254;11.314;2023-03-03T00:55:21;-0.60;99.90
20319;DHT22;10317;47.254;11.314;2023-03-03T00:57:46;-0.60;99.90
20319;DHT22;10317;47.254;11.314;2023-03-03T01:00:12;-0.60;99.90
20319;DHT22;10317;47.254;11.314;2023-03-03T01:02:38;-0.60;99.90
20319;DHT22;10317;47.254;11.314;2023-03-03T01:05:04;-0.60;99.90
20319;DHT22;10317;47.254;11.314;2023-03-03T01:07:30;-0.60;99.90
20319;DHT22;10317;47.254;11.314;2023-03-03T01:09:56;-0.60;99.90
20319;DHT22;10317;47.254;11.314;2023-03-03T01:12:22;-0.70;99.90
20319;DHT22;10317;47.254;11.314;2023-03-03T01:14:48;-0.70;99.90
20319;DHT22;10317;47.254;11.314;2023-03-03T01:17:17;-0.60;99.90
20319;DHT22;10317;47.254;11.314;2023-03-03T01:19:43;-0.80;99.90
20319;DHT22;10317;47.254;11.314;2023-03-03T01:22:08;-0.70;99.90
20319;DHT22;10317;47.254;11.314;2023-03-03T01:24:34;-0.70;99.90
20319;DHT22;10317;47.254;11.314;2023-03-03T01:27:00;-0.80;99.90
20319;DHT22;10317;47.254;11.314;2023-03-03T01:29:25;-0.80;99.90
20319;DHT22;10317;47.254;11.314;2023-03-03T01:31:51;-0.70;99.90
20319;DHT22;10317;47.254;11.314;2023-03-03T01:34:16;-0.80;99.90
20319;DHT22;10317;47.254;11.314;2023-03-03T01:36:42;-0.80;99.90
20319;DHT22;10317;47.254;11.314;2023-03-03T01:39:09;-0.80;99.90
20319;DHT22;10317;47.254;11.314;2023-03-03T01:41:35;-0.80;99.90
20319;DHT22;10317;47.254;11.314;2023-03-03T01:44:01;-0.80;99.90
20319;DHT22;10317;47.254;11.314;2023-03-03T01:48:59;-0.90;99.90
20319;DHT22;10317;47.254;11.314;2023-03-03T01:51:33;-0.90;99.90
20319;DHT22;10317;47.254;11.314;2023-03-03T01:54:02;-0.80;99.90
20319;DHT22;10317;47.254;11.314;2023-03-03T01:56:29;-0.90;99.90
20319;DHT22;10317;47.254;11.314;2023-03-03T01:59:05;-0.90;99.90
20319;DHT22;10317;47.254;11.314;2023-03-03T02:01:32;-0.90;99.90
20319;DHT22;10317;47.254;11.314;2023-03-03T02:03:59;-0.90;99.90
20319;DHT22;10317;47.254;11.314;2023-03-03T02:06:30;-0.90;99.90
20319;DHT22;10317;47.254;11.314;2023-03-03T02:09:06;-0.90;99.90
20319;DHT22;10317;47.254;11.314;2023-03-03T02:11:37;-1.00;99.90
20319;DHT22;10317;47.254;11.314;2023-03-03T02:14:05;-1.00;99.90
20319;DHT22;10317;47.254;11.314;2023-03-03T02:16:30;-1.00;99.90
20319;DHT22;10317;47.254;11.314;2023-03-03T02:18:56;-1.00;99.90
20319;DHT22;10317;47.254;11.314;2023-03-03T02:21:23;-1.00;99.90
20319;DHT22;10317;47.254;11.314;2023-03-03T02:26:42;-1.00;99.90
20319;DHT22;10317;47.254;11.314;2023-03-03T02:29:10;-1.00;99.90
20319;DHT22;10317;47.254;11.314;2023-03-03T02:31:36;-1.00;99.90
20319;DHT22;10317;47.254;11.314;2023-03-03T02:34:03;-1.00;99.90
20319;DHT22;10317;47.254;11.314;2023-03-03T02:36:31;-1.00;99.90
20319;DHT22;10317;47.254;11.314;2023-03-03T02:39:10;-1.00;99.90
20319;DHT22;10317;47.254;11.314;2023-03-03T02:44:22;-0.90;99.90
20319;DHT22;10317;47.254;11.314;2023-03-03T02:46:49;-0.90;99.90
20319;DHT22;10317;47.254;11.314;2023-03-03T02:49:18;-0.90;99.90
20319;DHT22;10317;47.254;11.314;2023-03-03T02:51:44;-0.90;99.90
20319;DHT22;10317;47.254;11.314;2023-03-03T02:54:11;-0.80;99.90
20319;DHT22;10317;47.254;11.314;2023-03-03T02:56:38;-0.80;99.90
20319;DHT22;10317;47.254;11.314;2023-03-03T02:59:04;-0.70;99.90
20319;DHT22;10317;47.254;11.314;2023-03-03T03:01:31;-0.70;99.90
20319;DHT22;10317;47.254;11.314;2023-03-03T03:04:06;-0.70;99.90
20319;DHT22;10317;47.254;11.314;2023-03-03T03:06:32;-0.60;99.90
20319;DHT22;10317;47.254;11.314;2023-03-03T03:08:58;-0.60;99.90
20319;DHT22;10317;47.254;11.314;2023-03-03T03:11:25;-0.50;99.90
20319;DHT22;10317;47.254;11.314;2023-03-03T03:13:50;-0.50;99.90
20319;DHT22;10317;47.254;11.314;2023-03-03T03:16:17;-0.50;99.90
20319;DHT22;10317;47.254;11.314;2023-03-03T03:18:43;-0.40;99.90
20319;DHT22;10317;47.254;11.314;2023-03-03T03:21:10;-0.40;99.90
20319;DHT22;10317;47.254;11.314;2023-03-03T03:23:37;-0.30;99.90
20319;DHT22;10317;47.254;11.314;2023-03-03T03:26:03;-0.20;99.90
20319;DHT22;10317;47.254;11.314;2023-03-03T03:28:30;-0.20;99.90
20319;DHT22;10317;47.254;11.314;2023-03-03T03:30:56;-0.20;99.90
20319;DHT22;10317;47.254;11.314;2023-03-03T03:33:22;-0.20;99.90
20319;DHT22;10317;47.254;11.314;2023-03-03T03:35:48;-0.10;99.90
20319;DHT22;10317;47.254;11.314;2023-03-03T03:38:15;-0.20;99.90
20319;DHT22;10317;47.254;11.314;2023-03-03T03:40:41;-0.10;99.90
20319;DHT22;10317;47.254;11.314;2023-03-03T03:43:07;0.00;99.90
20319;DHT22;10317;47.254;11.314;2023-03-03T03:45:33;0.00;99.90
20319;DHT22;10317;47.254;11.314;2023-03-03T03:47:58;0.00;99.90
20319;DHT22;10317;47.254;11.314;2023-03-03T03:50:24;0.00;99.90
20319;DHT22;10317;47.254;11.314;2023-03-03T03:52:50;0.10;99.90
20319;DHT22;10317;47.254;11.314;2023-03-03T03:55:16;0.10;99.90
20319;DHT22;10317;47.254;11.314;2023-03-03T03:57:42;0.10;99.90
20319;DHT22;10317;47.254;11.314;2023-03-03T04:00:09;0.10;99.90
20319;DHT22;10317;47.254;11.314;2023-03-03T04:02:35;0.10;99.90
20319;DHT22;10317;47.254;11.314;2023-03-03T04:05:01;0.10;99.90
20319;DHT22;10317;47.254;11.314;2023-03-03T04:07:28;0.10;99.90
20319;DHT22;10317;47.254;11.314;2023-03-03T04:09:54;0.10;99.90
20319;DHT22;10317;47.254;11.314;2023-03-03T04:12:19;0.10;99.90
20319;DHT22;10317;47.254;11.314;2023-03-03T04:14:45;0.10;99.90
20319;DHT22;10317;47.254;11.314;2023-03-03T04:17:18;0.10;99.90
20319;DHT22;10317;47.254;11.314;2023-03-03T04:19:44;0.20;99.90
20319;DHT22;10317;47.254;11.314;2023-03-03T04:22:10;0.20;99.90
20319;DHT22;10317;47.254;11.314;2023-03-03T04:24:38;0.20;99.90
20319;DHT22;10317;47.254;11.314;2023-03-03T04:27:04;0.20;99.90
20319;DHT22;10317;47.254;11.314;2023-03-03T04:29:30;0.20;99.90
20319;DHT22;10317;47.254;11.314;2023-03-03T04:31:55;0.20;99.90
20319;DHT22;10317;47.254;11.314;2023-03-03T04:34:21;0.30;99.90
20319;DHT22;10317;47.254;11.314;2023-03-03T04:36:47;0.30;99.90
20319;DHT22;10317;47.254;11.314;2023-03-03T04:39:13;0.30;99.90
20319;DHT22;10317;47.254;11.314;2023-03-03T04:41:38;0.30;99.90
20319;DHT22;10317;47.254;11.314;2023-03-03T04:44:04;0.40;99.90
20319;DHT22;10317;47.254;11.314;2023-03-03T04:46:30;0.30;99.90
20319;DHT22;10317;47.254;11.314;2023-03-03T04:48:55;0.40;99.90
20319;DHT22;10317;47.254;11.314;2023-03-03T04:51:21;0.40;99.90
20319;DHT22;10317;47.254;11.314;2023-03-03T04:53:47;0.40;99.90
20319;DHT22;10317;47.254;11.314;2023-03-03T04:56:13;0.40;99.90
20319;DHT22;10317;47.254;11.314;2023-03-03T04:58:39;0.40;99.90
20319;DHT22;10317;47.254;11.314;2023-03-03T05:01:05;0.40;99.90
20319;DHT22;10317;47.254;11.314;2023-03-03T05:03:30;0.40;99.90
20319;DHT22;10317;47.254;11.314;2023-03-03T05:05:56;0.40;99.90
20319;DHT22;10317;47.254;11.314;2023-03-03T05:08:22;0.40;99.90
20319;DHT22;10317;47.254;11.314;2023-03-03T05:10:52;0.40;99.90
20319;DHT22;10317;47.254;11.314;2023-03-03T05:13:18;0.50;99.90
20319;DHT22;10317;47.254;11.314;2023-03-03T05:15:52;0.50;99.90
20319;DHT22;10317;47.254;11.314;2023-03-03T05:18:19;0.40;99.90
20319;DHT22;10317;47.254;11.314;2023-03-03T05:20:45;0.40;99.90
20319;DHT22;10317;47.254;11.314;2023-03-03T05:23:11;0.40;99.90
20319;DHT22;10317;47.254;11.314;2023-03-03T05:25:36;0.40;99.90
20319;DHT22;10317;47.254;11.314;2023-03-03T05:28:04;0.40;99.90
20319;DHT22;10317;47.254;11.314;2023-03-03T05:30:30;0.50;99.90
20319;DHT22;10317;47.254;11.314;2023-03-03T05:32:56;0.50;99.90
20319;DHT22;10317;47.254;11.314;2023-03-03T05:35:24;0.50;99.90
20319;DHT22;10317;47.254;11.314;2023-03-03T05:37:49;0.50;99.90
20319;DHT22;10317;47.254;11.314;2023-03-03T05:40:15;0.50;99.90
20319;DHT22;10317;47.254;11.314;2023-03-03T05:42:41;0.50;99.90
20319;DHT22;10317;47.254;11.314;2023-03-03T05:45:07;0.50;99.90
20319;DHT22;10317;47.254;11.314;2023-03-03T05:47:32;0.50;99.90
20319;DHT22;10317;47.254;11.314;2023-03-03T05:49:58;0.60;99.90
20319;DHT22;10317;47.254;11.314;2023-03-03T05:52:25;0.60;99.90
20319;DHT22;10317;47.254;11.314;2023-03-03T05:54:51;0.60;99.90
20319;DHT22;10317;47.254;11.314;2023-03-03T05:57:16;0.60;99.90
20319;DHT22;10317;47.254;11.314;2023-03-03T05:59:42;0.50;99.90
20319;DHT22;10317;47.254;11.314;2023-03-03T06:02:08;0.60;99.90
20319;DHT22;10317;47.254;11.314;2023-03-03T06:04:34;0.60;99.90
20319;DHT22;10317;47.254;11.314;2023-03-03T06:07:00;0.50;99.90
20319;DHT22;10317;47.254;11.314;2023-03-03T06:09:25;0.60;99.90
20319;DHT22;10317;47.254;11.314;2023-03-03T06:11:51;0.60;99.90
20319;DHT22;10317;47.254;11.314;2023-03-03T06:14:18;0.60;99.90
20319;DHT22;10317;47.254;11.314;2023-03-03T06:16:46;0.60;99.90
20319;DHT22;10317;47.254;11.314;2023-03-03T06:19:12;0.60;99.90
20319;DHT22;10317;47.254;11.314;2023-03-03T06:21:38;0.60;99.90
20319;DHT22;10317;47.254;11.314;2023-03-03T06:24:04;0.60;99.90
20319;DHT22;10317;47.254;11.314;2023-03-03T06:26:31;0.70;99.90
20319;DHT22;10317;47.254;11.314;2023-03-03T06:28:57;0.60;99.90
20319;DHT22;10317;47.254;11.314;2023-03-03T06:31:22;0.70;99.90
20319;DHT22;10317;47.254;11.314;2023-03-03T06:33:48;0.70;99.90
20319;DHT22;10317;47.254;11.314;2023-03-03T06:36:14;0.80;99.90
20319;DHT22;10317;47.254;11.314;2023-03-03T06:38:40;0.80;99.90
20319;DHT22;10317;47.254;11.314;2023-03-03T06:41:05;0.80;99.90
20319;DHT22;10317;47.254;11.314;2023-03-03T06:43:33;0.80;99.90
20319;DHT22;10317;47.254;11.314;2023-03-03T06:45:59;0.90;99.90
20319;DHT22;10317;47.254;11.314;2023-03-03T06:48:25;0.90;99.90
20319;DHT22;10317;47.254;11.314;2023-03-03T06:50:50;0.90;99.90
20319;DHT22;10317;47.254;11.314;2023-03-03T06:53:17;1.00;99.90
20319;DHT22;10317;47.254;11.314;2023-03-03T06:55:43;1.00;99.90
20319;DHT22;10317;47.254;11.314;2023-03-03T06:58:14;1.00;99.90
20319;DHT22;10317;47.254;11.314;2023-03-03T07:00:53;1.10;99.90
20319;DHT22;10317;47.254;11.314;2023-03-03T07:03:33;1.10;99.90
20319;DHT22;10317;47.254;11.314;2023-03-03T07:06:00;1.20;99.90
20319;DHT22;10317;47.254;11.314;2023-03-03T07:08:29;1.20;99.90
20319;DHT22;10317;47.254;11.314;2023-03-03T07:10:55;1.30;99.90
20319;DHT22;10317;47.254;11.314;2023-03-03T07:13:27;1.40;99.90
20319;DHT22;10317;47.254;11.314;2023-03-03T07:15:55;1.40;99.90
20319;DHT22;10317;47.254;11.314;2023-03-03T07:18:43;1.50;99.90
20319;DHT22;10317;47.254;11.314;2023-03-03T07:21:13;1.50;99.90
20319;DHT22;10317;47.254;11.314;2023-03-03T07:23:41;1.50;99.90
20319;DHT22;10317;47.254;11.314;2023-03-03T07:26:22;1.60;99.90
20319;DHT22;10317;47.254;11.314;2023-03-03T07:28:55;1.60;99.90
20319;DHT22;10317;47.254;11.314;2023-03-03T07:33:51;1.70;99.90
20319;DHT22;10317;47.254;11.314;2023-03-03T07:36:34;1.70;99.90
20319;DHT22;10317;47.254;11.314;2023-03-03T07:39:37;1.60;99.90
20319;DHT22;10317;47.254;11.314;2023-03-03T07:42:40;1.70;99.90
20319;DHT22;10317;47.254;11.314;2023-03-03T07:45:26;1.70;99.90
20319;DHT22;10317;47.254;11.314;2023-03-03T07:48:00;1.70;99.90
20319;DHT22;10317;47.254;11.314;2023-03-03T07:50:33;1.70;99.90
20319;DHT22;10317;47.254;11.314;2023-03-03T07:53:00;1.80;99.90
20319;DHT22;10317;47.254;11.314;2023-03-03T07:55:37;1.80;99.90
20319;DHT22;10317;47.254;11.314;2023-03-03T08:03:18;1.90;99.90
20319;DHT22;10317;47.254;11.314;2023-03-03T08:05:49;1.90;99.90
20319;DHT22;10317;47.254;11.314;2023-03-03T08:08:30;2.00;99.90
20319;DHT22;10317;47.254;11.314;2023-03-03T08:10:59;2.00;99.90
20319;DHT22;10317;47.254;11.314;2023-03-03T08:18:47;2.10;99.90
20319;DHT22;10317;47.254;11.314;2023-03-03T08:21:25;2.20;99.90
20319;DHT22;10317;47.254;11.314;2023-03-03T08:23:51;2.30;99.90
20319;DHT22;10317;47.254;11.314;2023-03-03T08:26:22;2.40;99.90
20319;DHT22;10317;47.254;11.314;2023-03-03T08:28:49;2.50;99.90
20319;DHT22;10317;47.254;11.314;2023-03-03T08:31:15;2.60;99.90
20319;DHT22;10317;47.254;11.314;2023-03-03T08:33:42;2.70;99.90
20319;DHT22;10317;47.254;11.314;2023-03-03T08:36:08;2.80;99.90
20319;DHT22;10317;47.254;11.314;2023-03-03T08:38:34;3.00;99.90
20319;DHT22;10317;47.254;11.314;2023-03-03T08:41:00;3.10;99.90
20319;DHT22;10317;47.254;11.314;2023-03-03T08:43:26;3.30;99.90
20319;DHT22;10317;47.254;11.314;2023-03-03T08:45:54;3.50;99.90
20319;DHT22;10317;47.254;11.314;2023-03-03T08:48:22;3.60;99.90
20319;DHT22;10317;47.254;11.314;2023-03-03T08:50:51;3.70;99.90
20319;DHT22;10317;47.254;11.314;2023-03-03T08:53:18;3.90;99.90
20319;DHT22;10317;47.254;11.314;2023-03-03T08:55:45;4.10;99.90
20319;DHT22;10317;47.254;11.314;2023-03-03T08:58:12;4.20;99.90
20319;DHT22;10317;47.254;11.314;2023-03-03T09:00:38;4.40;99.90
20319;DHT22;10317;47.254;11.314;2023-03-03T09:03:04;4.50;99.90
20319;DHT22;10317;47.254;11.314;2023-03-03T09:05:33;4.60;99.90
20319;DHT22;10317;47.254;11.314;2023-03-03T09:07:59;4.70;99.90
20319;DHT22;10317;47.254;11.314;2023-03-03T09:10:27;4.80;99.90
20319;DHT22;10317;47.254;11.314;2023-03-03T09:12:57;4.90;99.90
20319;DHT22;10317;47.254;11.314;2023-03-03T09:15:35;4.80;99.90
20319;DHT22;10317;47.254;11.314;2023-03-03T09:18:18;4.80;99.90
20319;DHT22;10317;47.254;11.314;2023-03-03T09:26:23;5.10;99.90
20319;DHT22;10317;47.254;11.314;2023-03-03T09:29:34;5.20;99.90
20319;DHT22;10317;47.254;11.314;2023-03-03T09:31:55;5.30;99.90
20319;DHT22;10317;47.254;11.314;2023-03-03T09:34:40;5.40;99.90
20319;DHT22;10317;47.254;11.314;2023-03-03T09:37:27;5.50;99.90
20319;DHT22;10317;47.254;11.314;2023-03-03T09:43:08;5.60;99.90
20319;DHT22;10317;47.254;11.314;2023-03-03T09:48:31;5.80;99.90
20319;DHT22;10317;47.254;11.314;2023-03-03T09:56:24;6.10;99.90
20319;DHT22;10317;47.254;11.314;2023-03-03T10:07:42;6.20;99.90
20319;DHT22;10317;47.254;11.314;2023-03-03T10:33:27;6.60;99.10
20319;DHT22;10317;47.254;11.314;2023-03-03T10:41:42;6.70;99.20
20319;DHT22;10317;47.254;11.314;2023-03-03T10:49:21;6.90;98.90
20319;DHT22;10317;47.254;11.314;2023-03-03T10:58:34;7.00;98.30
20319;DHT22;10317;47.254;11.314;2023-03-03T11:03:57;7.10;97.90
20319;DHT22;10317;47.254;11.314;2023-03-03T11:12:45;7.50;97.70
20319;DHT22;10317;47.254;11.314;2023-03-03T11:15:40;7.70;97.00
20319;DHT22;10317;47.254;11.314;2023-03-03T11:21:25;7.90;96.80
20319;DHT22;10317;47.254;11.314;2023-03-03T11:43:45;8.10;95.10
20319;DHT22;10317;47.254;11.314;2023-03-03T11:46:19;8.20;95.50
20319;DHT22;10317;47.254;11.314;2023-03-03T11:56:47;7.80;95.80
20319;DHT22;10317;47.254;11.314;2023-03-03T11:59:41;7.70;96.10
20319;DHT22;10317;47.254;11.314;2023-03-03T12:05:20;7.60;96.40
20319;DHT22;10317;47.254;11.314;2023-03-03T12:13:33;7.90;96.00
20319;DHT22;10317;47.254;11.314;2023-03-03T12:18:39;8.00;96.00
20319;DHT22;10317;47.254;11.314;2023-03-03T12:26:51;8.40;95.60
20319;DHT22;10317;47.254;11.314;2023-03-03T12:29:26;8.40;94.80
20319;DHT22;10317;47.254;11.314;2023-03-03T12:35:38;8.20;95.60
20319;DHT22;10317;47.254;11.314;2023-03-03T12:41:07;8.30;95.60
20319;DHT22;10317;47.254;11.314;2023-03-03T12:49:19;8.00;95.20
20319;DHT22;10317;47.254;11.314;2023-03-03T12:52:18;8.00;95.60
20319;DHT22;10317;47.254;11.314;2023-03-03T13:16:10;7.90;95.60
20319;DHT22;10317;47.254;11.314;2023-03-03T13:18:59;7.80;95.30
20319;DHT22;10317;47.254;11.314;2023-03-03T13:21:48;7.70;95.70
20319;DHT22;10317;47.254;11.314;2023-03-03T13:27:17;7.90;95.10
20319;DHT22;10317;47.254;11.314;2023-03-03T13:32:22;7.90;95.10
20319;DHT22;10317;47.254;11.314;2023-03-03T13:35:06;7.90;95.60
20319;DHT22;10317;47.254;11.314;2023-03-03T13:37:45;7.90;95.70
20319;DHT22;10317;47.254;11.314;2023-03-03T13:40:15;8.10;95.80
20319;DHT22;10317;47.254;11.314;2023-03-03T13:42:49;8.20;95.40
20319;DHT22;10317;47.254;11.314;2023-03-03T13:45:56;8.20;96.00
20319;DHT22;10317;47.254;11.314;2023-03-03T13:48:28;8.30;95.40
20319;DHT22;10317;47.254;11.314;2023-03-03T13:51:36;8.20;95.40
20319;DHT22;10317;47.254;11.314;2023-03-03T14:05:25;7.70;97.00
20319;DHT22;10317;47.254;11.314;2023-03-03T14:08:11;7.70;97.00
20319;DHT22;10317;47.254;11.314;2023-03-03T14:11:27;7.60;97.20
20319;DHT22;10317;47.254;11.314;2023-03-03T14:19:24;7.80;97.50
20319;DHT22;10317;47.254;11.314;2023-03-03T14:21:55;7.70;96.90
20319;DHT22;10317;47.254;11.314;2023-03-03T14:24:27;7.80;97.10
20319;DHT22;10317;47.254;11.314;2023-03-03T14:26:58;7.70;96.90
20319;DHT22;10317;47.254;11.314;2023-03-03T14:32:01;7.60;97.10
20319;DHT22;10317;47.254;11.314;2023-03-03T14:34:38;7.60;97.50
20319;DHT22;10317;47.254;11.314;2023-03-03T14:37:26;7.60;97.40
20319;DHT22;10317;47.254;11.314;2023-03-03T14:40:06;7.60;97.60
20319;DHT22;10317;47.254;11.314;2023-03-03T14:42:37;7.70;97.60
20319;DHT22;10317;47.254;11.314;2023-03-03T14:45:35;7.70;97.70
20319;DHT22;10317;47.254;11.314;2023-03-03T14:48:22;7.60;97.50
20319;DHT22;10317;47.254;11.314;2023-03-03T14:50:59;7.70;97.90
20319;DHT22;10317;47.254;11.314;2023-03-03T14:53:44;7.70;97.80
20319;DHT22;10317;47.254;11.314;2023-03-03T14:56:24;7.70;98.00
20319;DHT22;10317;47.254;11.314;2023-03-03T14:58:52;7.80;98.10
20319;DHT22;10317;47.254;11.314;2023-03-03T15:01:34;7.90;97.70
20319;DHT22;10317;47.254;11.314;2023-03-03T15:09:39;7.80;97.80
20319;DHT22;10317;47.254;11.314;2023-03-03T15:12:25;7.70;98.00
20319;DHT22;10317;47.254;11.314;2023-03-03T15:40:04;7.70;98.50
20319;DHT22;10317;47.254;11.314;2023-03-03T15:43:01;7.70;98.20
20319;DHT22;10317;47.254;11.314;2023-03-03T15:45:32;7.60;98.50
20319;DHT22;10317;47.254;11.314;2023-03-03T15:56:55;7.50;98.80
20319;DHT22;10317;47.254;11.314;2023-03-03T16:00:28;7.50;99.10
20319;DHT22;10317;47.254;11.314;2023-03-03T16:02:39;7.50;99.10
20319;DHT22;10317;47.254;11.314;2023-03-03T16:05:14;7.50;99.20
20319;DHT22;10317;47.254;11.314;2023-03-03T16:08:03;7.50;99.40
20319;DHT22;10317;47.254;11.314;2023-03-03T16:11:08;7.40;99.40
20319;DHT22;10317;47.254;11.314;2023-03-03T16:22:55;7.30;99.90
20319;DHT22;10317;47.254;11.314;2023-03-03T16:25:47;7.30;99.90
20319;DHT22;10317;47.254;11.314;2023-03-03T16:28:24;7.20;99.90
20319;DHT22;10317;47.254;11.314;2023-03-03T16:31:06;7.20;99.90
20319;DHT22;10317;47.254;11.314;2023-03-03T16:38:48;7.00;99.90
20319;DHT22;10317;47.254;11.314;2023-03-03T16:41:22;6.90;99.90
20319;DHT22;10317;47.254;11.314;2023-03-03T16:46:46;6.80;99.90
20319;DHT22;10317;47.254;11.314;2023-03-03T16:52:10;6.70;99.90
20319;DHT22;10317;47.254;11.314;2023-03-03T16:54:44;6.60;99.90
20319;DHT22;10317;47.254;11.314;2023-03-03T16:57:39;6.60;99.90
20319;DHT22;10317;47.254;11.314;2023-03-03T17:05:46;6.30;99.90
20319;DHT22;10317;47.254;11.314;2023-03-03T17:22:32;5.90;99.90
20319;DHT22;10317;47.254;11.314;2023-03-03T17:25:17;5.80;99.90
20319;DHT22;10317;47.254;11.314;2023-03-03T17:28:06;5.70;99.90
20319;DHT22;10317;47.254;11.314;2023-03-03T17:30:58;5.60;99.90
20319;DHT22;10317;47.254;11.314;2023-03-03T17:42:27;5.30;99.90
20319;DHT22;10317;47.254;11.314;2023-03-03T17:52:51;5.20;99.90
20319;DHT22;10317;47.254;11.314;2023-03-03T18:22:48;4.70;99.90
20319;DHT22;10317;47.254;11.314;2023-03-03T18:25:25;4.60;99.90
20319;DHT22;10317;47.254;11.314;2023-03-03T18:28:20;4.60;99.90
20319;DHT22;10317;47.254;11.314;2023-03-03T18:30:55;4.50;99.90
20319;DHT22;10317;47.254;11.314;2023-03-03T18:33:35;4.50;99.90
20319;DHT22;10317;47.254;11.314;2023-03-03T18:36:13;4.50;99.90
20319;DHT22;10317;47.254;11.314;2023-03-03T18:38:44;4.40;99.90
20319;DHT22;10317;47.254;11.314;2023-03-03T18:41:11;4.40;99.90
20319;DHT22;10317;47.254;11.314;2023-03-03T18:49:07;4.20;99.90
20319;DHT22;10317;47.254;11.314;2023-03-03T18:54:00;4.20;99.90
20319;DHT22;10317;47.254;11.314;2023-03-03T19:07:29;3.90;99.90
20319;DHT22;10317;47.254;11.314;2023-03-03T19:13:55;3.70;99.90
20319;DHT22;10317;47.254;11.314;2023-03-03T19:16:42;3.60;99.90
20319;DHT22;10317;47.254;11.314;2023-03-03T19:23:55;3.50;99.90
20319;DHT22;10317;47.254;11.314;2023-03-03T19:48:26;3.30;99.90
20319;DHT22;10317;47.254;11.314;2023-03-03T19:53:56;3.20;99.90
20319;DHT22;10317;47.254;11.314;2023-03-03T19:56:39;3.20;99.90
20319;DHT22;10317;47.254;11.314;2023-03-03T20:04:56;3.20;99.90
20319;DHT22;10317;47.254;11.314;2023-03-03T20:07:52;3.20;99.90
20319;DHT22;10317;47.254;11.314;2023-03-03T20:15:54;3.00;99.90
20319;DHT22;10317;47.254;11.314;2023-03-03T20:21:04;2.90;99.90
20319;DHT22;10317;47.254;11.314;2023-03-03T20:28:59;2.80;99.90
20319;DHT22;10317;47.254;11.314;2023-03-03T20:50:23;2.90;99.90
20319;DHT22;10317;47.254;11.314;2023-03-03T20:53:22;2.90;99.90
20319;DHT22;10317;47.254;11.314;2023-03-03T20:58:39;2.90;99.90
20319;DHT22;10317;47.254;11.314;2023-03-03T21:01:09;2.90;99.90
20319;DHT22;10317;47.254;11.314;2023-03-03T21:03:41;2.90;99.90
20319;DHT22;10317;47.254;11.314;2023-03-03T21:06:15;2.90;99.90
20319;DHT22;10317;47.254;11.314;2023-03-03T21:08:49;2.90;99.90
20319;DHT22;10317;47.254;11.314;2023-03-03T21:13:55;2.80;99.90
20319;DHT22;10317;47.254;11.314;2023-03-03T21:21:23;2.90;99.90
20319;DHT22;10317;47.254;11.314;2023-03-03T21:23:50;2.80;99.90
20319;DHT22;10317;47.254;11.314;2023-03-03T21:29:34;2.90;99.90
20319;DHT22;10317;47.254;11.314;2023-03-03T21:34:35;2.90;99.90
20319;DHT22;10317;47.254;11.314;2023-03-03T21:37:04;2.90;99.90
20319;DHT22;10317;47.254;11.314;2023-03-03T21:39:35;2.90;99.90
20319;DHT22;10317;47.254;11.314;2023-03-03T21:42:03;2.90;99.90
20319;DHT22;10317;47.254;11.314;2023-03-03T21:44:46;3.00;99.90
20319;DHT22;10317;47.254;11.314;2023-03-03T21:47:15;3.00;99.90
20319;DHT22;10317;47.254;11.314;2023-03-03T21:49:43;3.00;99.90
20319;DHT22;10317;47.254;11.314;2023-03-03T21:52:09;3.10;99.90
20319;DHT22;10317;47.254;11.314;2023-03-03T21:54:35;3.20;99.90
20319;DHT22;10317;47.254;11.314;2023-03-03T21:57:01;3.20;99.90
20319;DHT22;10317;47.254;11.314;2023-03-03T21:59:27;3.20;99.90
20319;DHT22;10317;47.254;11.314;2023-03-03T22:01:52;3.20;99.90
20319;DHT22;10317;47.254;11.314;2023-03-03T22:04:18;3.20;99.90
20319;DHT22;10317;47.254;11.314;2023-03-03T22:06:44;3.20;99.90
20319;DHT22;10317;47.254;11.314;2023-03-03T22:09:10;3.20;99.90
20319;DHT22;10317;47.254;11.314;2023-03-03T22:11:36;3.20;99.90
20319;DHT22;10317;47.254;11.314;2023-03-03T22:14:04;3.30;99.90
20319;DHT22;10317;47.254;11.314;2023-03-03T22:16:30;3.30;99.90
20319;DHT22;10317;47.254;11.314;2023-03-03T22:18:55;3.30;99.90
20319;DHT22;10317;47.254;11.314;2023-03-03T22:21:21;3.30;99.90
20319;DHT22;10317;47.254;11.314;2023-03-03T22:23:47;3.30;99.90
20319;DHT22;10317;47.254;11.314;2023-03-03T22:26:13;3.40;99.90
20319;DHT22;10317;47.254;11.314;2023-03-03T22:28:38;3.40;99.90
20319;DHT22;10317;47.254;11.314;2023-03-03T22:31:04;3.40;99.90
20319;DHT22;10317;47.254;11.314;2023-03-03T22:33:30;3.50;99.90
20319;DHT22;10317;47.254;11.314;2023-03-03T22:35:55;3.50;99.90
20319;DHT22;10317;47.254;11.314;2023-03-03T22:38:21;3.50;99.90
20319;DHT22;10317;47.254;11.314;2023-03-03T22:40:52;3.50;99.90
20319;DHT22;10317;47.254;11.314;2023-03-03T22:43:19;3.50;99.90
20319;DHT22;10317;47.254;11.314;2023-03-03T22:45:44;3.50;99.90
20319;DHT22;10317;47.254;11.314;2023-03-03T22:48:11;3.50;99.90
20319;DHT22;10317;47.254;11.314;2023-03-03T22:50:36;3.50;99.90
20319;DHT22;10317;47.254;11.314;2023-03-03T22:53:05;3.50;99.90
20319;DHT22;10317;47.254;11.314;2023-03-03T22:55:31;3.60;99.90
20319;DHT22;10317;47.254;11.314;2023-03-03T22:58:04;3.60;99.90
20319;DHT22;10317;47.254;11.314;2023-03-03T23:00:30;3.60;99.90
20319;DHT22;10317;47.254;11.314;2023-03-03T23:02:56;3.60;99.90
20319;DHT22;10317;47.254;11.314;2023-03-03T23:05:21;3.60;99.90
20319;DHT22;10317;47.254;11.314;2023-03-03T23:07:47;3.60;99.90
20319;DHT22;10317;47.254;11.314;2023-03-03T23:10:13;3.60;99.90
20319;DHT22;10317;47.254;11.314;2023-03-03T23:12:38;3.60;99.90
20319;DHT22;10317;47.254;11.314;2023-03-03T23:15:05;3.60;99.90
20319;DHT22;10317;47.254;11.314;2023-03-03T23:17:43;3.60;99.90
20319;DHT22;10317;47.254;11.314;2023-03-03T23:22:41;3.60;99.90
20319;DHT22;10317;47.254;11.314;2023-03-03T23:25:07;3.60;99.90